Time;durP1;ratioP1;P1;durP2;ratioP2;P2;SDS_P1;SDS_P2;PMS_P1;PMS_P2;Temp;Humidity;BMP_temperature;BMP_pressure;BME280_temperature;BME280_humidity;BME280_pressure;Samples;Min_cycle;Max_cycle;Signal;HPM_P1;HPM_P2
2022/01/13 00:02:34;;;;;;;48.40;20.90;;;;;;;-0.21;82.66;101499.71;207730;1315;140818;-68
2022/01/13 00:07:38;;;;;;;50.80;21.80;;;;;;;-0.18;82.54;101498.95;209244;1315;141452;-67
2022/01/13 00:13:01;;;;;;;27.80;10.60;;;;;;;-0.19;82.55;101498.16;208726;1316;141067;-68
2022/01/13 00:18:12;;;;;;;37.40;18.70;;;;;;;-0.15;82.74;101499.58;209308;1318;141282;-68
2022/01/13 00:29:04;;;;;;;37.40;19.40;;;;;;;-0.01;82.64;101537.77;209228;1317;141161;-68
2022/01/13 00:34:08;;;;;;;43.00;17.10;;;;;;;0.06;82.58;101535.46;207802;1318;141136;-67
2022/01/13 00:39:14;;;;;;;41.80;19.40;;;;;;;0.08;82.56;101490.89;208129;1315;140464;-67
2022/01/13 00:44:24;;;;;;;39.80;17.90;;;;;;;0.12;82.49;101475.52;207623;1318;140641;-71
2022/01/13 00:49:46;;;;;;;46.60;18.10;;;;;;;0.13;82.47;101480.20;207104;1318;140183;-67
2022/01/13 00:54:58;;;;;;;42.10;16.00;;;;;;;0.14;82.46;101453.33;207523;1316;141501;-72
2022/01/13 01:00:01;;;;;;;38.80;17.00;;;;;;;0.12;82.41;101431.45;207446;1318;140886;-67
2022/01/13 01:05:04;;;;;;;46.30;19.20;;;;;;;0.13;82.60;101437.67;207283;1318;140986;-71
2022/01/13 01:10:08;;;;;;;24.70;10.70;;;;;;;0.13;82.54;101453.11;207134;1318;140843;-67
2022/01/13 01:15:12;;;;;;;44.70;19.60;;;;;;;0.10;82.48;101469.79;206996;1318;141411;-70
2022/01/13 01:20:15;;;;;;;43.00;19.80;;;;;;;0.09;82.64;101493.23;207015;1318;140602;-67
2022/01/13 01:25:41;;;;;;;38.50;18.00;;;;;;;0.12;82.56;101495.46;207529;1315;141252;-68
2022/01/13 01:30:47;;;;;;;38.10;17.20;;;;;;;0.12;82.64;101475.55;207377;1316;139706;-68
2022/01/13 01:35:58;;;;;;;39.50;16.30;;;;;;;0.13;82.48;101476.34;206787;1316;141011;-67
2022/01/13 01:41:02;;;;;;;37.40;17.60;;;;;;;0.17;82.47;101474.94;208219;1313;141511;-72
2022/01/13 01:46:06;;;;;;;34.00;18.00;;;;;;;0.19;82.25;101472.36;207100;1315;145159;-76
2022/01/13 01:51:08;;;;;;;35.70;16.00;;;;;;;0.16;82.41;101467.36;208069;1316;140714;-67
2022/01/13 01:56:13;;;;;;;30.70;16.20;;;;;;;0.18;82.21;101456.89;206847;1318;141660;-67
2022/01/13 02:01:16;;;;;;;36.40;17.10;;;;;;;0.17;82.19;101457.99;207394;1318;140969;-68
2022/01/13 02:06:21;;;;;;;34.60;17.30;;;;;;;0.15;82.16;101461.14;206718;1317;142385;-66
2022/01/13 02:11:51;;;;;;;33.40;14.80;;;;;;;0.11;82.06;101467.73;207461;1317;141939;-66
2022/01/13 02:17:22;;;;;;;28.80;15.00;;;;;;;0.11;82.22;101453.27;207592;1316;142536;-68
2022/01/13 02:22:37;;;;;;;39.00;16.40;;;;;;;0.08;82.26;101449.44;207986;1316;141351;-70
2022/01/13 02:27:51;;;;;;;31.20;14.60;;;;;;;0.07;82.31;101442.02;208045;1315;140300;-71
2022/01/13 02:32:53;;;;;;;29.20;14.30;;;;;;;0.04;82.31;101412.88;209155;1317;140952;-70
2022/01/13 02:37:56;;;;;;;25.00;12.90;;;;;;;0.04;82.12;101401.59;209684;1317;145608;-69
2022/01/13 02:43:01;;;;;;;33.40;15.00;;;;;;;0.06;82.28;101403.80;208732;1316;141945;-69
2022/01/13 02:48:38;;;;;;;;;;;;;;;;;;;;;
2022/01/13 02:53:41;;;;;;;37.10;18.00;;;;;;;0.08;82.47;101420.80;208224;1315;141226;-69
2022/01/13 02:58:46;;;;;;;34.80;17.40;;;;;;;0.06;82.60;101420.77;208079;1315;140913;-70
2022/01/13 03:03:52;;;;;;;34.00;18.70;;;;;;;0.09;82.37;101410.91;207280;1315;142126;-68
2022/01/13 03:08:58;;;;;;;29.70;15.50;;;;;;;0.04;82.37;101397.92;207473;1316;140405;-67
2022/01/13 03:14:27;;;;;;;30.40;18.00;;;;;;;0.03;82.62;101399.73;207831;1316;143515;-68
2022/01/13 03:19:31;;;;;;;30.80;15.10;;;;;;;0.02;82.61;101403.09;207182;1316;142457;-67
2022/01/13 03:24:42;;;;;;;29.30;15.50;;;;;;;0.01;82.40;101396.53;208073;1316;140663;-66
2022/01/13 03:29:50;;;;;;;25.50;16.00;;;;;;;-0.02;82.67;101390.01;207246;1316;236267;-64
2022/01/13 03:34:56;;;;;;;26.40;15.60;;;;;;;-0.03;82.79;101397.79;207304;1318;140088;-66
2022/01/13 03:40:01;;;;;;;22.50;13.50;;;;;;;-0.06;83.04;101398.36;207672;1316;141348;-66
2022/01/13 03:45:06;;;;;;;28.00;14.90;;;;;;;-0.10;82.86;101387.70;207276;1315;142867;-65
2022/01/13 03:50:09;;;;;;;31.30;15.00;;;;;;;-0.13;83.20;101385.80;207166;1316;141575;-66
2022/01/13 03:56:05;;;;;;;22.60;13.00;;;;;;;-0.15;83.19;101376.37;207185;1316;141522;-67
2022/01/13 04:01:58;;;;;;;30.10;14.60;;;;;;;-0.13;83.23;101365.52;207667;1317;140733;-70
2022/01/13 04:07:16;;;;;;;17.30;10.30;;;;;;;-0.11;83.31;101364.52;207699;1316;140945;-72
2022/01/13 04:12:44;;;;;;;32.10;14.80;;;;;;;-0.13;83.38;101360.30;208095;1316;140316;-74
2022/01/13 04:17:48;;;;;;;36.90;15.40;;;;;;;-0.08;83.47;101346.45;207764;1317;142162;-71
2022/01/13 04:22:51;;;;;;;32.40;19.00;;;;;;;-0.03;83.28;101335.75;207404;1316;142395;-66
2022/01/13 04:28:01;;;;;;;39.70;20.00;;;;;;;0.00;83.40;101344.73;208171;1316;140776;-67
2022/01/13 04:33:05;;;;;;;36.90;15.80;;;;;;;0.01;83.59;101335.56;208354;1316;139697;-65
2022/01/13 04:38:17;;;;;;;34.20;17.70;;;;;;;0.01;83.70;101328.58;209605;1316;141124;-64
2022/01/13 04:43:29;;;;;;;29.80;18.50;;;;;;;0.06;83.75;101328.48;208534;1318;163341;-68
2022/01/13 04:48:52;;;;;;;;;;;;;;;;;;;;;
2022/01/13 04:54:01;;;;;;;35.00;17.80;;;;;;;0.07;83.94;101302.88;208334;1315;140132;-69
2022/01/13 04:59:13;;;;;;;26.80;15.10;;;;;;;0.06;83.86;101311.36;208384;1316;141332;-68
2022/01/13 05:04:15;;;;;;;29.40;14.90;;;;;;;0.05;84.10;101311.25;207618;1316;142240;-71
2022/01/13 05:09:21;;;;;;;27.90;14.50;;;;;;;0.06;83.95;101310.13;207482;1317;140535;-66
2022/01/13 05:14:26;;;;;;;26.90;15.60;;;;;;;0.05;83.94;101315.83;207512;1316;144661;-70
2022/01/13 05:19:38;;;;;;;36.10;15.00;;;;;;;0.04;84.19;101305.41;206939;1316;140033;-69
2022/01/13 05:24:54;;;;;;;;;;;;;;;;;;;;;
2022/01/13 05:30:24;;;;;;;;;;;;;;;;;;;;;
2022/01/13 05:35:28;;;;;;;37.00;19.20;;;;;;;0.14;84.57;101301.98;207456;1318;140378;-71
2022/01/13 05:41:01;;;;;;;30.30;17.00;;;;;;;0.14;84.25;101297.26;206881;1316;140674;-72
2022/01/13 05:46:05;;;;;;;31.20;16.10;;;;;;;0.13;84.25;101279.86;207579;1316;140425;-68
2022/01/13 05:51:16;;;;;;;21.80;12.00;;;;;;;0.11;84.78;101268.48;207961;1315;141079;-70
2022/01/13 05:56:28;;;;;;;22.30;13.50;;;;;;;0.10;84.71;101258.40;203598;1316;5396244;-67
2022/01/13 06:01:35;;;;;;;18.20;10.70;;;;;;;0.13;84.64;101274.98;207935;1316;142411;-69
2022/01/13 06:06:46;;;;;;;20.90;12.70;;;;;;;0.16;84.60;101291.78;206913;1315;141167;-64
2022/01/13 06:12:02;;;;;;;19.90;15.30;;;;;;;0.19;84.95;101302.40;208244;1314;140627;-68
2022/01/13 06:17:09;;;;;;;22.30;12.40;;;;;;;0.15;84.77;101300.09;207012;1316;141521;-66
2022/01/13 06:22:17;;;;;;;25.10;13.90;;;;;;;0.13;84.61;101291.20;208311;1316;235370;-71
2022/01/13 06:27:23;;;;;;;22.70;13.90;;;;;;;0.17;84.97;101275.17;207654;1315;162805;-70
2022/01/13 06:32:32;;;;;;;11.50;7.60;;;;;;;0.13;84.84;101267.61;207108;1318;140991;-66
2022/01/13 06:37:46;;;;;;;17.60;10.80;;;;;;;0.11;84.80;101246.79;207300;1318;141100;-68
2022/01/13 06:43:10;;;;;;;25.90;14.40;;;;;;;0.08;85.09;101215.02;208906;1316;141111;-68
2022/01/13 06:48:15;;;;;;;25.20;14.90;;;;;;;0.12;84.99;101208.41;208411;1318;141288;-68
2022/01/13 06:53:25;;;;;;;20.30;12.60;;;;;;;0.20;85.11;101207.54;208516;1316;141943;-68
2022/01/13 06:58:28;;;;;;;26.60;12.40;;;;;;;0.19;85.13;101199.05;207542;1315;141584;-67
2022/01/13 07:03:39;;;;;;;25.10;11.90;;;;;;;0.19;85.13;101166.40;209201;1316;140874;-70
2022/01/13 07:08:42;;;;;;;18.90;9.90;;;;;;;0.22;85.05;101157.53;207178;1318;143883;-71
2022/01/13 07:13:46;;;;;;;21.50;12.40;;;;;;;0.24;85.05;101177.48;207112;1317;141286;-71
2022/01/13 07:18:50;;;;;;;26.40;14.10;;;;;;;0.24;85.29;101194.49;207320;1316;140152;-68
2022/01/13 07:23:56;;;;;;;21.70;11.20;;;;;;;0.23;85.54;101193.88;206842;1316;141388;-72
2022/01/13 07:28:59;;;;;;;29.00;17.30;;;;;;;0.24;85.37;101192.04;208996;1318;141874;-74
2022/01/13 07:34:11;;;;;;;22.20;13.20;;;;;;;0.28;85.48;101198.13;207346;1317;143173;-68
2022/01/13 07:39:14;;;;;;;22.30;16.00;;;;;;;0.34;85.32;101203.54;207193;1315;140677;-71
2022/01/13 07:44:18;;;;;;;26.90;13.70;;;;;;;0.35;85.27;101206.23;207141;1315;163037;-70
2022/01/13 07:49:22;;;;;;;26.70;12.80;;;;;;;0.38;85.38;101207.23;207213;1317;141893;-68
2022/01/13 07:54:27;;;;;;;28.10;14.10;;;;;;;0.41;85.81;101200.70;207079;1315;141578;-68
2022/01/13 07:59:36;;;;;;;23.20;12.10;;;;;;;0.39;85.79;101194.53;206915;1317;141907;-68
2022/01/13 08:04:41;;;;;;;27.40;14.50;;;;;;;0.38;85.78;101198.28;207684;1317;141198;-67
2022/01/13 08:09:45;;;;;;;29.00;12.60;;;;;;;0.42;85.48;101199.73;207721;1315;141413;-71
2022/01/13 08:14:50;;;;;;;19.90;12.00;;;;;;;0.43;85.69;101188.06;207319;1316;141049;-67
2022/01/13 08:19:57;;;;;;;25.20;14.20;;;;;;;0.48;86.12;101194.13;208403;1317;140769;-67
2022/01/13 08:25:10;;;;;;;31.20;16.40;;;;;;;0.52;86.07;101181.47;206996;1317;141452;-70
2022/01/13 08:30:14;;;;;;;30.70;15.10;;;;;;;0.59;86.09;101189.08;207363;1317;142772;-69
2022/01/13 08:35:18;;;;;;;34.40;18.00;;;;;;;0.66;86.11;101179.74;207351;1316;141940;-71
2022/01/13 08:40:21;;;;;;;28.10;13.20;;;;;;;0.70;86.39;101180.45;206910;1316;141782;-67
2022/01/13 08:45:25;;;;;;;40.90;16.40;;;;;;;0.73;86.04;101181.55;208741;1316;140580;-70
2022/01/13 08:50:28;;;;;;;33.00;16.70;;;;;;;0.74;86.25;101173.44;206989;1318;142529;-74
2022/01/13 08:55:35;;;;;;;34.40;16.30;;;;;;;0.81;86.25;101179.83;208103;1318;142325;-72
2022/01/13 09:00:55;;;;;;;43.40;18.90;;;;;;;0.88;86.24;101181.45;208422;1318;141483;-73
2022/01/13 09:06:03;;;;;;;39.00;21.30;;;;;;;0.99;86.29;101195.51;208502;1316;142490;-71
2022/01/13 09:11:14;;;;;;;34.40;17.80;;;;;;;1.05;86.10;101189.27;207922;1317;141329;-74
2022/01/13 09:16:18;;;;;;;32.70;16.50;;;;;;;1.08;86.10;101187.01;208445;1315;139819;-74
2022/01/13 09:21:29;;;;;;;28.50;14.30;;;;;;;1.14;86.05;101184.25;207633;1316;140588;-74
2022/01/13 09:26:32;;;;;;;39.60;20.20;;;;;;;1.14;86.24;101190.52;207885;1319;140745;-70
2022/01/13 09:31:38;;;;;;;39.90;19.90;;;;;;;1.14;86.51;101192.57;207541;1317;140721;-72
2022/01/13 09:36:45;;;;;;;41.30;18.90;;;;;;;1.19;86.69;101178.80;207469;1316;140695;-71
2022/01/13 09:42:02;;;;;;;41.50;21.50;;;;;;;1.21;86.31;101168.71;207262;1316;140613;-68
2022/01/13 09:47:23;;;;;;;;;;;;;;;;;;;;;
2022/01/13 09:52:30;;;;;;;40.90;19.70;;;;;;;1.25;86.26;101164.63;207325;1317;141542;-80
2022/01/13 09:57:35;;;;;;;31.10;18.90;;;;;;;1.27;86.33;101156.02;207256;1317;141380;-79
2022/01/13 10:02:38;;;;;;;24.50;12.00;;;;;;;1.30;86.76;101151.02;207890;1316;141142;-80
2022/01/13 10:07:44;;;;;;;40.40;21.10;;;;;;;1.31;86.54;101137.96;208332;1316;141738;-77
2022/01/13 10:13:12;;;;;;;39.40;18.80;;;;;;;1.33;86.66;101128.09;206956;1316;140918;-69
2022/01/13 10:18:34;;;;;;;25.60;15.10;;;;;;;1.41;86.56;101112.21;207220;1316;142063;-69
2022/01/13 10:24:00;;;;;;;44.50;20.40;;;;;;;1.47;86.75;101101.63;206955;1318;246037;-76
2022/01/13 10:29:13;;;;;;;44.90;20.20;;;;;;;1.50;86.84;101096.42;206534;1318;142103;-68
2022/01/13 10:34:28;;;;;;;39.60;20.80;;;;;;;1.55;86.94;101090.48;207909;1317;142994;-79
2022/01/13 10:40:03;;;;;;;41.80;18.10;;;;;;;1.60;86.54;101092.00;207286;1317;141850;-83
2022/01/13 10:45:14;;;;;;;42.10;18.40;;;;;;;1.61;86.50;101072.08;207964;1316;141440;-83
2022/01/13 10:50:19;;;;;;;37.50;18.20;;;;;;;1.64;86.52;101069.14;208830;1316;142832;-80
2022/01/13 10:55:28;;;;;;;37.90;20.40;;;;;;;1.64;86.56;101068.45;209368;1317;140262;-79
2022/01/13 11:00:52;;;;;;;37.00;19.60;;;;;;;1.65;86.76;101057.67;208771;1316;140446;-79
2022/01/13 11:06:06;;;;;;;40.70;20.80;;;;;;;1.71;86.82;101042.78;209055;1317;141868;-79
2022/01/13 11:11:29;;;;;;;48.60;22.80;;;;;;;1.77;86.64;101039.41;209245;1316;140507;-82
2022/01/13 11:16:33;;;;;;;36.90;17.90;;;;;;;1.82;86.59;101046.99;208824;1317;140641;-83
2022/01/13 11:21:38;;;;;;;39.60;20.10;;;;;;;1.86;86.40;101041.17;208035;1316;141848;-71
2022/01/13 11:26:46;;;;;;;43.50;21.80;;;;;;;1.87;86.43;101047.70;208865;1317;143006;-80
2022/01/13 11:31:51;;;;;;;35.20;19.10;;;;;;;1.86;86.52;101036.96;208856;1317;140367;-78
2022/01/13 11:36:57;;;;;;;44.10;20.90;;;;;;;1.84;86.44;101027.30;207206;1316;141183;-83
2022/01/13 11:42:27;;;;;;;31.70;17.80;;;;;;;1.86;86.79;101023.42;207722;1316;141533;-78
2022/01/13 11:47:33;;;;;;;38.30;19.40;;;;;;;1.85;86.49;101019.33;207102;1316;161673;-77
2022/01/13 11:52:43;;;;;;;34.20;17.80;;;;;;;1.88;86.71;101022.03;207249;1319;141335;-74
2022/01/13 11:57:49;;;;;;;40.60;21.60;;;;;;;1.91;86.75;101018.92;207867;1315;141442;-81
2022/01/13 12:02:54;;;;;;;39.20;20.80;;;;;;;1.90;86.95;101024.59;207254;1316;139966;-75
2022/01/13 12:07:58;;;;;;;43.10;17.20;;;;;;;1.89;86.76;101017.77;208287;1316;140308;-78
2022/01/13 12:13:50;;;;;;;47.30;21.70;;;;;;;1.86;86.58;101008.87;208082;1316;142147;-80
2022/01/13 12:19:13;;;;;;;40.20;17.50;;;;;;;1.87;86.77;100991.65;207235;1316;140631;-79
2022/01/13 12:24:43;;;;;;;42.70;18.60;;;;;;;1.84;86.70;100988.94;206995;1316;141873;-75
2022/01/13 12:30:09;;;;;;;38.30;19.80;;;;;;;1.82;86.85;100992.47;207805;1315;140529;-78
2022/01/13 12:35:48;;;;;;;40.50;18.70;;;;;;;1.88;87.27;100988.02;207982;1316;141030;-75
2022/01/13 12:41:00;;;;;;;29.40;16.70;;;;;;;1.90;87.38;100992.77;207532;1316;140259;-76
2022/01/13 12:46:22;;;;;;;31.30;16.20;;;;;;;1.91;87.13;100997.69;207308;1319;142450;-75
2022/01/13 12:51:29;;;;;;;32.70;17.10;;;;;;;1.92;86.81;100989.02;207856;1319;141279;-77
2022/01/13 12:56:35;;;;;;;46.70;22.90;;;;;;;1.95;86.95;100981.73;208331;1320;140719;-78
2022/01/13 13:01:37;;;;;;;32.20;17.90;;;;;;;1.95;87.09;100965.80;207134;1316;139849;-79
2022/01/13 13:06:49;;;;;;;27.70;15.60;;;;;;;1.92;87.01;100969.00;209093;1317;140702;-78
2022/01/13 13:12:01;;;;;;;34.30;19.10;;;;;;;1.90;86.96;100971.02;209214;1317;140145;-78
2022/01/13 13:17:05;;;;;;;24.30;14.90;;;;;;;1.94;86.72;100976.74;208703;1319;141475;-80
2022/01/13 13:22:09;;;;;;;38.60;19.20;;;;;;;1.94;86.82;100978.55;208292;1316;140935;-79
2022/01/13 13:27:34;;;;;;;38.30;18.30;;;;;;;1.96;87.01;100987.76;208149;1316;140667;-78
2022/01/13 13:32:46;;;;;;;29.90;13.60;;;;;;;1.97;86.98;100982.73;207318;1316;224838;-80
2022/01/13 13:37:50;;;;;;;30.80;14.90;;;;;;;1.96;86.74;100980.39;207940;1316;141597;-78
2022/01/13 13:43:01;;;;;;;30.10;16.40;;;;;;;1.94;86.82;100975.73;207332;1315;140802;-78
2022/01/13 13:48:05;;;;;;;30.40;14.60;;;;;;;1.93;86.80;100973.02;207989;1316;141576;-79
2022/01/13 13:53:13;;;;;;;29.60;15.80;;;;;;;1.94;87.19;100983.20;205933;1317;1841807;-80
2022/01/13 13:58:20;;;;;;;25.00;14.50;;;;;;;1.96;87.46;100979.67;207246;1318;141165;-80
2022/01/13 14:03:40;;;;;;;26.80;16.20;;;;;;;1.98;87.27;100979.66;208204;1316;141771;-81
2022/01/13 14:08:52;;;;;;;25.30;13.40;;;;;;;1.96;87.15;100979.86;207934;1316;139653;-75
2022/01/13 14:14:34;;;;;;;33.50;13.60;;;;;;;1.93;87.24;100974.57;207661;1315;161945;-80
2022/01/13 14:20:04;;;;;;;25.70;14.20;;;;;;;1.91;87.20;100970.86;206838;1318;140582;-79
2022/01/13 14:25:16;;;;;;;21.20;13.00;;;;;;;1.92;87.34;100965.75;207555;1316;140500;-82
2022/01/13 14:30:41;;;;;;;24.30;14.20;;;;;;;1.94;87.23;100975.70;208114;1316;140307;-81
2022/01/13 14:36:00;;;;;;;26.50;14.20;;;;;;;1.93;87.52;100978.05;207195;1318;140461;-80
2022/01/13 14:41:08;;;;;;;22.10;10.90;;;;;;;1.95;87.49;100962.27;207071;1316;140021;-75
2022/01/13 14:46:14;;;;;;;24.60;12.90;;;;;;;1.98;87.31;100961.09;208025;1316;141575;-78
2022/01/13 14:51:22;;;;;;;25.90;13.80;;;;;;;1.98;87.44;100954.27;207514;1316;141684;-82
2022/01/13 14:56:35;;;;;;;26.20;14.10;;;;;;;1.97;87.23;100955.45;208775;1316;141878;-73
2022/01/13 15:01:43;;;;;;;25.20;13.50;;;;;;;1.95;87.40;100955.39;207512;1316;141715;-79
2022/01/13 15:06:48;;;;;;;28.60;17.40;;;;;;;2.01;87.32;100956.98;207134;1313;141170;-80
2022/01/13 15:12:00;;;;;;;25.70;14.50;;;;;;;2.04;87.68;100960.85;206922;1318;141761;-76
2022/01/13 15:17:03;;;;;;;20.30;12.00;;;;;;;2.05;87.56;100953.56;208566;1315;141712;-80
2022/01/13 15:22:10;;;;;;;31.00;15.30;;;;;;;2.08;87.81;100953.42;209064;1316;140978;-80
2022/01/13 15:27:17;;;;;;;24.60;14.70;;;;;;;2.12;87.63;100952.72;208611;1317;140860;-73
2022/01/13 15:32:27;;;;;;;26.30;13.70;;;;;;;2.17;87.58;100956.26;207749;1316;140504;-82
2022/01/13 15:37:30;;;;;;;24.20;17.00;;;;;;;2.23;87.67;100954.80;207756;1315;141089;-72
2022/01/13 15:42:40;;;;;;;22.00;13.80;;;;;;;2.26;87.64;100951.13;207504;1317;141174;-77
2022/01/13 15:47:45;;;;;;;20.60;12.40;;;;;;;2.27;87.51;100952.11;207110;1318;140744;-79
2022/01/13 15:52:52;;;;;;;23.20;13.90;;;;;;;2.25;87.46;100952.45;207968;1318;140659;-70
2022/01/13 15:58:03;;;;;;;28.60;16.40;;;;;;;2.27;87.60;100952.08;207372;1316;141402;-78
2022/01/13 16:03:09;;;;;;;17.60;10.50;;;;;;;2.27;87.73;100947.15;207674;1316;150791;-81
2022/01/13 16:08:13;;;;;;;25.20;12.80;;;;;;;2.29;87.89;100944.52;207294;1318;140757;-79
2022/01/13 16:13:18;;;;;;;25.30;15.50;;;;;;;2.33;87.62;100947.14;207742;1316;140480;-78
2022/01/13 16:18:22;;;;;;;21.70;12.10;;;;;;;2.34;87.62;100956.29;207142;1318;141104;-78
2022/01/13 16:23:28;;;;;;;18.70;12.50;;;;;;;2.33;87.51;100964.60;206937;1315;140609;-77
2022/01/13 16:28:35;;;;;;;20.90;13.70;;;;;;;2.33;88.07;100962.50;207737;1318;140277;-77
2022/01/13 16:33:48;;;;;;;19.80;12.20;;;;;;;2.36;87.90;100963.81;207166;1315;142254;-79
2022/01/13 16:38:53;;;;;;;26.30;14.20;;;;;;;2.37;87.93;100960.27;207344;1316;141929;-80
2022/01/13 16:44:00;;;;;;;18.60;13.30;;;;;;;2.38;87.63;100958.43;207401;1318;141624;-80
2022/01/13 16:49:03;;;;;;;28.70;16.20;;;;;;;2.36;87.75;100963.09;207154;1316;142018;-73
2022/01/13 16:54:06;;;;;;;20.80;14.40;;;;;;;2.39;87.66;100960.48;207205;1316;141021;-80
2022/01/13 16:59:18;;;;;;;25.40;13.60;;;;;;;2.39;87.62;100953.05;206820;1316;142764;-77
2022/01/13 17:04:24;;;;;;;27.50;14.40;;;;;;;2.37;87.71;100939.39;207942;1316;140167;-80
2022/01/13 17:09:30;;;;;;;27.10;13.80;;;;;;;2.38;88.06;100945.27;208374;1315;141413;-77
2022/01/13 17:14:37;;;;;;;20.20;13.00;;;;;;;2.41;87.88;100945.86;207626;1316;141002;-79
2022/01/13 17:19:47;;;;;;;22.40;12.70;;;;;;;2.38;87.81;100940.67;209497;1315;140531;-80
2022/01/13 17:25:15;;;;;;;30.60;13.60;;;;;;;2.39;87.65;100941.86;209429;1318;142246;-79
2022/01/13 17:30:21;;;;;;;20.30;12.10;;;;;;;2.44;87.88;100934.36;208944;1319;140865;-82
2022/01/13 17:35:26;;;;;;;24.70;13.30;;;;;;;2.46;87.87;100924.41;207873;1318;141013;-80
2022/01/13 17:40:29;;;;;;;33.20;15.40;;;;;;;2.46;87.95;100930.39;207680;1318;140790;-82
2022/01/13 17:45:35;;;;;;;29.40;14.80;;;;;;;2.51;87.88;100926.02;209060;1315;141762;-74
2022/01/13 17:50:39;;;;;;;29.90;14.70;;;;;;;2.49;87.59;100924.64;207584;1316;140115;-77
2022/01/13 17:55:42;;;;;;;27.80;15.20;;;;;;;2.52;87.60;100926.45;207166;1317;142331;-79
2022/01/13 18:00:56;;;;;;;27.20;14.40;;;;;;;2.49;87.55;100924.31;207252;1318;141230;-77
2022/01/13 18:06:00;;;;;;;29.20;15.70;;;;;;;2.44;87.78;100936.23;207376;1317;140360;-79
2022/01/13 18:11:04;;;;;;;25.50;14.80;;;;;;;2.46;87.94;100935.98;207623;1316;140620;-80
2022/01/13 18:16:07;;;;;;;22.80;13.70;;;;;;;2.47;87.79;100930.48;207486;1315;142320;-79
2022/01/13 18:21:14;;;;;;;23.70;14.00;;;;;;;2.46;87.67;100925.67;207835;1316;141202;-79
2022/01/13 18:26:21;;;;;;;26.20;14.50;;;;;;;2.43;87.54;100921.73;207411;1317;140910;-79
2022/01/13 18:31:26;;;;;;;33.00;15.80;;;;;;;2.38;87.72;100925.21;207163;1316;141497;-79
2022/01/13 18:36:29;;;;;;;28.50;15.40;;;;;;;2.43;88.11;100921.04;207250;1315;140939;-80
2022/01/13 18:41:36;;;;;;;24.50;15.40;;;;;;;2.45;87.87;100914.49;208331;1316;141077;-74
2022/01/13 18:46:50;;;;;;;24.30;15.50;;;;;;;2.46;87.88;100907.62;207658;1318;140559;-68
2022/01/13 18:51:56;;;;;;;20.20;11.90;;;;;;;2.51;88.30;100891.67;207401;1318;142135;-78
2022/01/13 18:57:03;;;;;;;25.60;14.10;;;;;;;2.53;88.15;100885.99;207131;1318;141010;-77
2022/01/13 19:02:07;;;;;;;25.60;14.60;;;;;;;2.52;88.18;100886.94;206929;1316;141712;-77
2022/01/13 19:07:09;;;;;;;24.60;14.10;;;;;;;2.54;88.14;100893.08;208284;1315;142684;-78
2022/01/13 19:12:14;;;;;;;25.40;16.50;;;;;;;2.56;88.15;100892.00;207400;1316;141473;-80
2022/01/13 19:17:43;;;;;;;24.50;13.10;;;;;;;2.52;87.92;100887.66;208866;1315;140867;-81
2022/01/13 19:22:48;;;;;;;;;;;;;;;2.51;87.76;100883.21;208096;1316;142915;-80
2022/01/13 19:27:53;;;;;;;26.40;12.40;;;;;;;2.47;88.09;100878.18;207699;1316;128899;-81
2022/01/13 19:33:00;;;;;;;29.00;15.10;;;;;;;2.48;88.08;100872.98;207485;1316;139803;-78
2022/01/13 19:38:04;;;;;;;25.60;15.80;;;;;;;2.50;88.00;100871.36;208789;1317;140366;-80
2022/01/13 19:43:17;;;;;;;17.90;11.50;;;;;;;2.49;88.30;100871.13;208631;1318;140551;-75
2022/01/13 19:48:26;;;;;;;22.40;14.40;;;;;;;2.51;87.84;100870.19;208753;1318;141890;-82
2022/01/13 19:53:37;;;;;;;29.90;13.00;;;;;;;2.56;87.91;100860.12;208783;1316;140924;-79
2022/01/13 19:58:41;;;;;;;25.40;15.20;;;;;;;2.60;87.96;100862.45;208278;1316;140600;-79
2022/01/13 20:03:44;;;;;;;26.70;14.80;;;;;;;2.58;87.94;100853.36;207956;1315;140737;-78
2022/01/13 20:08:47;;;;;;;27.50;15.60;;;;;;;2.59;88.17;100848.33;207973;1315;141192;-81
2022/01/13 20:13:50;;;;;;;27.30;13.60;;;;;;;2.59;88.36;100844.50;207263;1316;141069;-75
2022/01/13 20:18:54;;;;;;;21.70;11.40;;;;;;;2.60;88.27;100849.48;207484;1316;140515;-80
2022/01/13 20:24:05;;;;;;;25.30;15.10;;;;;;;2.61;88.43;100845.58;207682;1315;142308;-79
2022/01/13 20:29:10;;;;;;;34.40;18.50;;;;;;;2.59;88.13;100841.71;207577;1318;140641;-80
2022/01/13 20:34:15;;;;;;;33.70;17.00;;;;;;;2.56;88.38;100843.18;207618;1315;140488;-79
2022/01/13 20:39:19;;;;;;;27.50;17.20;;;;;;;2.60;88.44;100831.62;207758;1316;140130;-73
2022/01/13 20:44:21;;;;;;;22.10;12.70;;;;;;;2.60;88.51;100831.89;207206;1315;140763;-81
2022/01/13 20:49:26;;;;;;;31.40;13.90;;;;;;;2.60;88.31;100827.58;207933;1317;140973;-81
2022/01/13 20:54:29;;;;;;;18.30;10.20;;;;;;;2.64;88.51;100822.42;207675;1316;140628;-80
2022/01/13 20:59:34;;;;;;;28.20;14.40;;;;;;;2.65;88.32;100803.68;207759;1318;141495;-71
2022/01/13 21:04:43;;;;;;;35.40;16.40;;;;;;;2.62;88.46;100801.03;206974;1318;141001;-80
2022/01/13 21:09:50;;;;;;;26.20;13.80;;;;;;;2.63;88.38;100797.19;207636;1316;140824;-80
2022/01/13 21:14:57;;;;;;;32.40;15.90;;;;;;;2.63;88.36;100796.56;208490;1316;140762;-77
2022/01/13 21:20:02;;;;;;;34.30;18.10;;;;;;;2.66;88.45;100800.27;207753;1315;141479;-80
2022/01/13 21:25:06;;;;;;;28.20;14.40;;;;;;;2.67;88.45;100795.59;207346;1316;140781;-80
2022/01/13 21:30:12;;;;;;;30.40;13.50;;;;;;;2.68;88.28;100783.75;208812;1315;141263;-76
2022/01/13 21:35:17;;;;;;;27.90;15.90;;;;;;;2.71;88.23;100782.89;208669;1316;140949;-81
2022/01/13 21:40:20;;;;;;;24.00;12.20;;;;;;;2.72;88.68;100780.16;208808;1316;142444;-78
2022/01/13 21:45:23;;;;;;;29.90;14.50;;;;;;;2.75;88.38;100783.56;209248;1317;141610;-77
2022/01/13 21:50:25;;;;;;;26.20;14.40;;;;;;;2.78;88.36;100779.04;208892;1316;141252;-77
2022/01/13 21:55:51;;;;;;;48.80;26.70;;;;;;;2.81;88.36;100768.83;208285;1318;605332;-81
2022/01/13 22:00:54;;;;;;;39.90;17.10;;;;;;;2.82;88.66;100759.64;207866;1317;143242;-76
2022/01/13 22:06:00;;;;;;;31.10;16.80;;;;;;;2.85;88.78;100764.75;207458;1315;141349;-75
2022/01/13 22:11:07;;;;;;;31.90;19.80;;;;;;;2.85;88.44;100775.41;207810;1316;141504;-75
2022/01/13 22:16:11;;;;;;;27.50;17.10;;;;;;;2.82;88.60;100773.98;207366;1318;140979;-76
2022/01/13 22:21:24;;;;;;;33.80;17.50;;;;;;;2.83;88.67;100758.78;207314;1318;141207;-78
2022/01/13 22:26:30;;;;;;;31.10;16.70;;;;;;;2.77;88.52;100752.23;207164;1316;142138;-76
2022/01/13 22:31:32;;;;;;;40.00;17.50;;;;;;;2.75;88.84;100753.05;207805;1315;141107;-73
2022/01/13 22:36:35;;;;;;;31.70;18.40;;;;;;;2.79;88.64;100757.48;207891;1316;140973;-74
2022/01/13 22:41:38;;;;;;;34.20;18.50;;;;;;;2.81;88.59;100761.98;207253;1316;140667;-80
2022/01/13 22:46:50;;;;;;;29.70;15.60;;;;;;;2.80;88.89;100758.54;207175;1316;141217;-77
2022/01/13 22:51:56;;;;;;;34.30;20.00;;;;;;;2.80;88.72;100768.91;207091;1316;141177;-75
2022/01/13 22:57:05;;;;;;;30.90;16.40;;;;;;;2.81;89.09;100764.14;208318;1316;140491;-78
2022/01/13 23:02:16;;;;;;;31.20;16.10;;;;;;;2.83;88.81;100760.16;207260;1316;140943;-76
2022/01/13 23:07:21;;;;;;;29.70;20.20;;;;;;;2.87;88.86;100752.09;207072;1315;142756;-72
2022/01/13 23:12:27;;;;;;;18.80;11.80;;;;;;;2.89;88.83;100750.29;207362;1315;140119;-77
2022/01/13 23:22:53;;;;;;;23.80;13.20;;;;;;;2.92;88.68;100729.91;207580;1318;141527;-77
2022/01/13 23:28:00;;;;;;;31.10;17.60;;;;;;;2.92;88.74;100716.75;207725;1316;141448;-78
2022/01/13 23:33:03;;;;;;;37.80;21.20;;;;;;;2.91;88.72;100709.20;208340;1316;221769;-79